Jefferson City, TN

6:37 PM EDT on May 22, 2015 (GMT -0400)
Jefferson Heights | | Change Station
CLOSE
Current Station
Personal Weather Station
Location: Jefferson City, TN
Elevation: 1145 ft
Nearby Weather Stations

Elev 1145 ft 36.13 °N, 83.50 °W | Updated 1 minute ago

Clear
Clear
69.6 °F
Feels Like 69.6 °F
N
0.0
Wind Variable Wind from WNW
Gusts 0.0 mph

Today
High -- | Low -- °F
--% Chance of Precip.
Yesterday
High -- | Low -- °F
Precip. -- in
6:23 AM 8:38 PM
Waxing Crescent, 24% visible
Pressure 30.22 in
Visibility 10.0 miles
Clouds Few 4500 ft
Scattered Clouds 25000 ft
Dew Point 41 °F
Humidity 35%
Rainfall 0.00 in
Snow Depth Not available.
UV 1.0 out of 12
Pollen 7.10 out of 12
Air Quality Not available.
Flu Activity No Activity
METAR KTYS 222153Z 01005KT 10SM FEW045 SCT250 23/05 A3023 RMK AO2 SLP231 T02280050

More Conditions Fewer Conditions

Pressure 30.22 in
Visibility 10.0 miles
Clouds Few 4500 ft
Scattered Clouds 25000 ft
Dew Point 41 °F
Humidity 35%
Rainfall 0.00 in
Snow Depth Not available.
UV 1.0 out of 12
Pollen 7.10 out of 12
Air Quality Not available.
Flu Activity No Activity
METAR KTYS 222153Z 01005KT 10SM FEW045 SCT250 23/05 A3023 RMK AO2 SLP231 T02280050

More Conditions Fewer Conditions

10-Day Weather Forecast

Almanac

Astronomy

May. 22, 2015 Rise Set
Actual Time
Civil Twilight
Nautical Twilight
Astronomical Twilight
Moon
Length of Visible Light
Length of Day
Tomorrow will be .
, % of the Moon is Illuminated

Today's Extremes

State Highs State Lows

Community

WunderPhotos

Upload Photos

1,823,324 photos uploaded!

WunderBlogs® & News

Nearby

Air Quality

  Air Quality AQ Index Pollutant
Not available.

Snow Depth

Station Depth Elevation

Earthquake Activity

City Distance Mag. Time & Date
Minimum magnitude displayed is 2.5.

Coastal Water Temperatures

Place Temperature

Stations

Nearby Weather Stations

Station Location Temp. Windchill Dew Point Humidity Wind Precip. Elev Updated Type